createdAt,value
2022-07-27T00:01:20.394Z,0.90
2022-07-27T00:03:48.780Z,1.15
2022-07-27T00:06:16.614Z,0.88
2022-07-27T00:08:44.549Z,0.95
2022-07-27T00:11:13.463Z,1.40
2022-07-27T00:13:41.866Z,0.95
2022-07-27T00:16:09.818Z,1.27
2022-07-27T00:18:37.566Z,1.00
2022-07-27T00:21:05.259Z,1.10
2022-07-27T00:23:32.993Z,1.20
2022-07-27T00:26:00.648Z,1.20
2022-07-27T00:28:28.311Z,1.10
2022-07-27T00:30:56.682Z,1.00
2022-07-27T00:33:24.450Z,0.88
2022-07-27T00:35:52.133Z,1.00
2022-07-27T00:38:20.191Z,1.00
2022-07-27T00:40:47.891Z,1.10
2022-07-27T00:43:16.327Z,1.20
2022-07-27T00:45:44.007Z,0.98
2022-07-27T00:48:12.035Z,1.33
2022-07-27T00:50:43.450Z,1.20
2022-07-27T00:53:13.693Z,1.00
2022-07-27T00:55:41.924Z,1.00
2022-07-27T00:58:12.747Z,1.20
2022-07-27T01:00:40.912Z,0.90
2022-07-27T01:03:09.701Z,0.90
2022-07-27T01:05:42.906Z,0.80
2022-07-27T01:08:13.623Z,1.08
2022-07-27T01:10:42.861Z,2.08
2022-07-27T01:13:12.610Z,1.20
2022-07-27T01:15:41.935Z,1.15
2022-07-27T01:18:28.111Z,1.00
2022-07-27T01:20:56.459Z,0.90
2022-07-27T01:23:25.753Z,0.95
2022-07-27T01:25:53.827Z,1.10
2022-07-27T01:28:21.825Z,0.90
2022-07-27T01:30:49.708Z,0.95
2022-07-27T01:33:17.817Z,0.98
2022-07-27T01:35:45.471Z,0.90
2022-07-27T01:38:13.568Z,1.10
2022-07-27T01:40:41.355Z,0.93
2022-07-27T01:43:09.084Z,0.90
2022-07-27T01:45:36.795Z,1.40
2022-07-27T01:48:04.620Z,1.15
2022-07-27T01:50:32.507Z,1.15
2022-07-27T01:53:00.166Z,1.05
2022-07-27T01:55:27.842Z,1.10
2022-07-27T01:58:07.182Z,1.20
2022-07-27T02:00:35.880Z,1.20
2022-07-27T02:03:04.904Z,0.90
2022-07-27T02:05:32.829Z,1.08
2022-07-27T02:08:00.740Z,1.27
2022-07-27T02:10:28.481Z,1.00
2022-07-27T02:12:56.154Z,1.10
2022-07-27T02:15:26.757Z,1.00
2022-07-27T02:17:56.719Z,0.80
2022-07-27T02:20:26.070Z,1.20
2022-07-27T02:22:53.746Z,1.00
2022-07-27T02:25:21.729Z,1.30
2022-07-27T02:27:50.468Z,1.10
2022-07-27T02:30:18.157Z,1.10
2022-07-27T02:32:46.069Z,1.20
2022-07-27T02:35:19.558Z,0.90
2022-07-27T02:37:49.417Z,1.67
2022-07-27T02:40:18.489Z,0.90
2022-07-27T02:42:47.842Z,1.12
2022-07-27T02:45:16.951Z,1.10
2022-07-27T02:47:45.291Z,1.17
2022-07-27T02:50:13.384Z,1.10
2022-07-27T02:52:41.225Z,1.10
2022-07-27T02:55:09.800Z,0.90
2022-07-27T02:57:40.931Z,1.10
2022-07-27T03:00:14.799Z,1.00
2022-07-27T03:02:43.158Z,1.10
2022-07-27T03:05:11.897Z,1.00
2022-07-27T03:07:39.608Z,1.10
2022-07-27T03:10:08.167Z,1.10
2022-07-27T03:12:35.905Z,1.05
2022-07-27T03:15:03.648Z,1.27
2022-07-27T03:17:31.380Z,1.00
2022-07-27T03:19:59.024Z,0.98
2022-07-27T03:22:26.722Z,1.17
2022-07-27T03:24:54.377Z,1.00
2022-07-27T03:27:22.019Z,1.10
2022-07-27T03:29:49.650Z,1.00
2022-07-27T03:32:17.319Z,0.95
2022-07-27T03:34:44.983Z,0.90
2022-07-27T03:37:12.635Z,0.90
2022-07-27T03:39:40.322Z,1.10
2022-07-27T03:42:08.056Z,1.10
2022-07-27T03:44:35.712Z,1.20
2022-07-27T03:47:03.384Z,1.02
2022-07-27T03:49:31.195Z,1.27
2022-07-27T03:51:58.945Z,1.10
2022-07-27T03:54:26.698Z,1.10
2022-07-27T03:56:54.367Z,1.20
2022-07-27T03:59:22.199Z,1.05
2022-07-27T04:01:49.996Z,1.25
2022-07-27T04:04:17.690Z,1.15
2022-07-27T04:06:45.356Z,1.05
2022-07-27T04:09:13.848Z,1.40
2022-07-27T04:11:50.448Z,1.20
2022-07-27T04:14:19.093Z,1.25
2022-07-27T04:16:46.998Z,1.10
2022-07-27T04:19:15.124Z,1.40
2022-07-27T04:21:43.134Z,1.33
2022-07-27T04:24:10.891Z,2.20
2022-07-27T04:26:38.713Z,1.33
2022-07-27T04:29:06.452Z,1.30
2022-07-27T04:31:34.205Z,1.20
2022-07-27T04:34:01.974Z,1.30
2022-07-27T04:36:29.889Z,1.58
2022-07-27T04:39:00.026Z,1.10
2022-07-27T04:41:30.465Z,1.20
2022-07-27T04:44:00.169Z,1.40
2022-07-27T04:46:30.662Z,2.00
2022-07-27T04:48:59.046Z,1.60
2022-07-27T04:51:31.193Z,1.40
2022-07-27T04:54:01.885Z,1.33
2022-07-27T04:56:29.663Z,1.90
2022-07-27T04:58:57.413Z,1.67
2022-07-27T05:01:30.371Z,1.40
2022-07-27T05:04:01.035Z,1.58
2022-07-27T05:06:28.769Z,1.37
2022-07-27T05:08:56.457Z,1.52
2022-07-27T05:11:24.157Z,1.30
2022-07-27T05:13:52.035Z,1.60
2022-07-27T05:16:19.762Z,1.40
2022-07-27T05:18:47.456Z,1.37
2022-07-27T05:21:15.202Z,1.67
2022-07-27T05:23:43.103Z,1.37
2022-07-27T05:26:10.824Z,1.95
2022-07-27T05:28:38.564Z,1.67
2022-07-27T05:31:06.222Z,1.40
2022-07-27T05:33:34.107Z,1.60
2022-07-27T05:36:01.750Z,1.60
2022-07-27T05:38:29.612Z,1.50
2022-07-27T05:40:57.374Z,1.55
2022-07-27T05:43:25.084Z,1.20
2022-07-27T05:45:52.778Z,1.40
2022-07-27T05:48:20.510Z,1.50
2022-07-27T05:50:48.211Z,1.37
2022-07-27T05:53:15.960Z,1.15
2022-07-27T05:55:58.455Z,1.20
2022-07-27T05:58:30.983Z,1.80
2022-07-27T06:00:59.060Z,1.52
2022-07-27T06:03:27.365Z,1.80
2022-07-27T06:06:15.116Z,1.85
2022-07-27T06:08:42.793Z,1.90
2022-07-27T06:11:10.689Z,1.52
2022-07-27T06:13:42.496Z,1.50
2022-07-27T06:16:11.053Z,1.80
2022-07-27T06:18:38.972Z,1.35
2022-07-27T06:21:07.048Z,1.60
2022-07-27T06:23:34.835Z,1.85
2022-07-27T06:26:02.855Z,2.00
2022-07-27T06:28:30.507Z,1.80
2022-07-27T06:30:58.413Z,1.83
2022-07-27T06:33:30.092Z,1.73
2022-07-27T06:36:01.693Z,1.55
2022-07-27T06:38:30.261Z,1.55
2022-07-27T06:40:58.031Z,1.67
2022-07-27T06:43:31.715Z,1.70
2022-07-27T06:46:00.788Z,2.10
2022-07-27T06:48:28.552Z,1.92
2022-07-27T06:50:56.695Z,1.50
2022-07-27T06:53:24.408Z,1.55
2022-07-27T06:55:52.249Z,1.70
2022-07-27T06:58:20.543Z,2.10
2022-07-27T07:00:48.597Z,1.80
2022-07-27T07:03:16.598Z,2.08
2022-07-27T07:05:47.397Z,1.90
2022-07-27T07:08:15.785Z,2.08
2022-07-27T07:10:46.491Z,1.75
2022-07-27T07:13:14.368Z,1.92
2022-07-27T07:15:43.542Z,1.83
2022-07-27T07:18:12.799Z,1.77
2022-07-27T07:20:41.256Z,1.85
2022-07-27T07:23:09.251Z,1.80
2022-07-27T07:25:38.222Z,2.00
2022-07-27T07:28:06.921Z,1.60
2022-07-27T07:30:34.774Z,1.85
2022-07-27T07:33:03.646Z,2.60
2022-07-27T07:35:31.745Z,2.00
2022-07-27T07:37:59.576Z,2.30
2022-07-27T07:40:44.699Z,2.00
2022-07-27T07:43:14.363Z,1.80
2022-07-27T07:45:51.057Z,1.85
2022-07-27T07:48:21.370Z,2.00
2022-07-27T07:50:52.237Z,1.90
2022-07-27T07:53:22.467Z,1.90
2022-07-27T07:55:50.656Z,2.10
2022-07-27T07:58:18.480Z,1.70
2022-07-27T08:00:46.192Z,1.90
2022-07-27T08:03:14.005Z,1.80
2022-07-27T08:05:41.772Z,1.85
2022-07-27T08:08:09.560Z,1.65
2022-07-27T08:10:37.483Z,2.00
2022-07-27T08:13:05.390Z,2.20
2022-07-27T08:15:36.001Z,1.80
2022-07-27T08:18:07.870Z,1.60
2022-07-27T08:20:35.943Z,1.95
2022-07-27T08:23:04.617Z,2.15
2022-07-27T08:25:33.079Z,2.25
2022-07-27T08:28:02.760Z,2.17
2022-07-27T08:30:32.349Z,1.58
2022-07-27T08:33:03.364Z,1.90
2022-07-27T08:35:33.422Z,1.92
2022-07-27T08:38:02.337Z,1.70
2022-07-27T08:40:46.758Z,2.00
2022-07-27T08:43:23.953Z,1.92
2022-07-27T08:45:56.386Z,2.00
2022-07-27T08:48:26.757Z,1.90
2022-07-27T08:50:55.718Z,1.75
2022-07-27T08:53:24.270Z,1.95
2022-07-27T08:55:52.205Z,1.67
2022-07-27T08:58:19.981Z,2.20
2022-07-27T09:00:51.166Z,1.75
2022-07-27T09:03:21.459Z,1.70
2022-07-27T09:05:54.817Z,1.92
2022-07-27T09:08:30.740Z,1.85
2022-07-27T09:11:00.611Z,1.83
2022-07-27T09:13:29.194Z,2.37
2022-07-27T09:16:19.718Z,2.10
2022-07-27T09:18:49.501Z,1.75
2022-07-27T09:21:22.093Z,2.25
2022-07-27T09:23:54.099Z,1.90
2022-07-27T09:26:33.136Z,2.28
2022-07-27T09:29:12.735Z,1.80
2022-07-27T09:31:44.906Z,1.77
2022-07-27T09:34:13.762Z,1.65
2022-07-27T09:36:55.109Z,2.40
2022-07-27T09:39:24.620Z,1.98
2022-07-27T09:41:58.198Z,2.15
2022-07-27T09:44:42.183Z,1.65
2022-07-27T09:47:28.995Z,1.75
2022-07-27T09:49:58.952Z,1.58
2022-07-27T09:52:29.817Z,1.75
2022-07-27T09:55:07.006Z,1.95
2022-07-27T09:57:57.944Z,1.60
2022-07-27T10:00:27.377Z,1.77
2022-07-27T10:02:56.115Z,1.55
2022-07-27T10:05:24.314Z,1.40
2022-07-27T10:07:55.503Z,1.70
2022-07-27T10:10:24.466Z,1.73
2022-07-27T10:12:55.488Z,1.52
2022-07-27T10:15:25.651Z,1.73
2022-07-27T10:18:09.754Z,1.70
2022-07-27T10:20:47.876Z,1.50
2022-07-27T10:23:31.786Z,1.40
2022-07-27T10:26:19.409Z,1.52
2022-07-27T10:29:03.024Z,1.30
2022-07-27T10:31:39.223Z,1.50
2022-07-27T10:34:10.121Z,1.65
2022-07-27T10:36:48.484Z,1.50
2022-07-27T10:39:34.217Z,1.42
2022-07-27T10:42:25.554Z,1.45
2022-07-27T10:45:02.159Z,1.52
2022-07-27T10:47:51.587Z,1.52
2022-07-27T10:50:19.235Z,1.55
2022-07-27T10:52:55.646Z,1.33
2022-07-27T10:55:37.415Z,1.10
2022-07-27T10:58:10.787Z,1.20
2022-07-27T11:00:54.772Z,1.02
2022-07-27T11:03:25.543Z,1.48
2022-07-27T11:06:30.567Z,1.42
2022-07-27T11:09:27.113Z,1.17
2022-07-27T11:11:42.041Z,1.30
2022-07-27T11:14:10.849Z,1.58
2022-07-27T11:16:54.840Z,1.10
2022-07-27T11:19:25.025Z,1.00
2022-07-27T11:21:55.929Z,1.17
2022-07-27T11:24:25.824Z,1.40
2022-07-27T11:26:54.246Z,1.05
2022-07-27T11:29:24.372Z,1.10
2022-07-27T11:31:58.339Z,1.17
2022-07-27T11:34:34.960Z,1.20
2022-07-27T11:37:04.157Z,1.08
2022-07-27T11:42:23.786Z,1.30
2022-07-27T11:44:53.779Z,1.40
2022-07-27T11:47:22.699Z,1.40
2022-07-27T11:49:50.429Z,1.20
2022-07-27T11:52:19.514Z,1.40
2022-07-27T11:54:52.884Z,1.08
2022-07-27T11:57:21.683Z,1.33
2022-07-27T11:59:49.541Z,1.08
2022-07-27T12:02:20.830Z,1.40
2022-07-27T12:04:51.127Z,1.62
2022-07-27T12:07:29.076Z,1.42
2022-07-27T12:09:59.543Z,1.65
2022-07-27T12:12:29.531Z,1.65
2022-07-27T12:15:00.031Z,1.42
2022-07-27T12:17:31.830Z,1.27
2022-07-27T12:20:02.700Z,1.33
2022-07-27T12:22:45.247Z,1.35
2022-07-27T12:25:30.602Z,1.55
2022-07-27T12:28:08.496Z,1.58
2022-07-27T12:30:39.226Z,1.48
2022-07-27T12:33:09.992Z,1.45
2022-07-27T12:35:48.871Z,1.23
2022-07-27T12:38:17.433Z,1.10
2022-07-27T12:40:55.454Z,1.67
2022-07-27T12:43:28.214Z,1.30
2022-07-27T12:45:56.769Z,1.10
2022-07-27T12:48:27.729Z,1.37
2022-07-27T12:51:14.171Z,1.12
2022-07-27T12:53:41.973Z,1.30
2022-07-27T12:56:13.661Z,1.73
2022-07-27T12:58:42.342Z,1.30
2022-07-27T13:01:10.203Z,1.30
2022-07-27T13:03:37.957Z,1.60
2022-07-27T13:06:12.305Z,1.20
2022-07-27T13:08:40.794Z,1.17
2022-07-27T13:11:08.521Z,1.58
2022-07-27T13:13:36.534Z,1.70
2022-07-27T13:16:04.368Z,1.40
2022-07-27T13:18:32.243Z,1.17
2022-07-27T13:20:59.960Z,1.48
2022-07-27T13:23:27.675Z,1.40
2022-07-27T13:25:55.394Z,1.80
2022-07-27T13:28:23.453Z,1.12
2022-07-27T13:30:51.244Z,1.33
2022-07-27T13:33:18.998Z,1.58
2022-07-27T13:35:59.050Z,1.50
2022-07-27T13:38:29.613Z,1.20
2022-07-27T13:40:57.584Z,1.50
2022-07-27T13:43:25.325Z,1.35
2022-07-27T13:45:53.105Z,1.45
2022-07-27T13:48:20.838Z,1.30
2022-07-27T13:50:48.558Z,1.60
2022-07-27T13:53:18.135Z,1.35
2022-07-27T13:55:46.045Z,1.35
2022-07-27T13:58:14.107Z,1.20
2022-07-27T14:00:42.416Z,1.30
2022-07-27T14:03:11.505Z,1.20
2022-07-27T14:05:41.278Z,1.40
2022-07-27T14:08:16.720Z,1.52
2022-07-27T14:10:44.426Z,1.40
2022-07-27T14:13:15.375Z,1.30
2022-07-27T14:15:50.568Z,1.10
2022-07-27T14:18:26.271Z,1.20
2022-07-27T14:20:55.391Z,1.12
2022-07-27T14:23:23.576Z,1.15
2022-07-27T14:25:51.616Z,1.23
2022-07-27T14:28:19.422Z,1.00
2022-07-27T14:30:47.771Z,1.30
2022-07-27T14:33:16.308Z,1.33
2022-07-27T14:35:44.035Z,1.42
2022-07-27T14:38:12.373Z,1.30
2022-07-27T14:40:41.735Z,1.37
2022-07-27T14:43:10.610Z,1.40
2022-07-27T14:45:45.021Z,1.23
2022-07-27T14:48:28.516Z,1.48
2022-07-27T14:51:07.502Z,1.33
2022-07-27T14:53:35.594Z,1.62
2022-07-27T14:56:03.277Z,1.40
2022-07-27T14:58:31.016Z,1.50
2022-07-27T15:00:59.205Z,1.25
2022-07-27T15:03:27.478Z,1.20
2022-07-27T15:05:55.271Z,1.48
2022-07-27T15:08:25.722Z,1.33
2022-07-27T15:10:53.466Z,1.20
2022-07-27T15:13:21.154Z,1.42
2022-07-27T15:15:49.647Z,1.30
2022-07-27T15:18:19.755Z,1.20
2022-07-27T15:20:48.829Z,1.60
2022-07-27T15:23:17.258Z,1.60
2022-07-27T15:25:45.191Z,1.33
2022-07-27T15:28:13.405Z,1.42
2022-07-27T15:30:41.886Z,1.30
2022-07-27T15:33:09.633Z,1.40
2022-07-27T15:35:37.431Z,1.40
2022-07-27T15:38:05.599Z,1.33
2022-07-27T15:40:39.240Z,1.10
2022-07-27T15:43:08.615Z,1.25
2022-07-27T15:45:42.280Z,1.40
2022-07-27T15:48:12.017Z,1.40
2022-07-27T15:50:41.956Z,1.77
2022-07-27T15:53:10.744Z,1.45
2022-07-27T15:55:39.565Z,1.10
2022-07-27T15:58:07.878Z,1.20
2022-07-27T16:00:40.957Z,1.42
2022-07-27T16:03:10.993Z,1.50
2022-07-27T16:05:41.359Z,1.30
2022-07-27T16:08:10.817Z,1.50
2022-07-27T16:10:39.938Z,1.50
2022-07-27T16:13:09.361Z,1.40
2022-07-27T16:15:57.974Z,1.58
2022-07-27T16:18:26.256Z,1.30
2022-07-27T16:20:54.942Z,1.37
2022-07-27T16:23:22.938Z,1.37
2022-07-27T16:26:06.299Z,1.40
2022-07-27T16:28:39.776Z,1.42
2022-07-27T16:31:09.789Z,1.70
2022-07-27T16:33:37.865Z,1.48
2022-07-27T16:36:08.569Z,1.37
2022-07-27T16:38:37.727Z,1.40
2022-07-27T16:41:10.405Z,1.20
2022-07-27T16:43:39.436Z,1.40
2022-07-27T16:46:10.996Z,1.45
2022-07-27T16:48:42.757Z,1.77
2022-07-27T16:51:14.330Z,1.30
2022-07-27T16:53:44.486Z,1.25
2022-07-27T16:56:12.980Z,1.40
2022-07-27T16:58:40.886Z,1.30
2022-07-27T17:01:09.534Z,1.30
2022-07-27T17:03:38.681Z,1.40
2022-07-27T17:06:07.289Z,1.35
2022-07-27T17:08:36.873Z,1.55
2022-07-27T17:11:06.230Z,1.50
2022-07-27T17:13:34.689Z,1.37
2022-07-27T17:16:08.626Z,1.40
2022-07-27T17:18:40.574Z,1.73
2022-07-27T17:21:13.371Z,1.50
2022-07-27T17:23:42.621Z,1.60
2022-07-27T17:26:12.643Z,1.30
2022-07-27T17:28:42.034Z,1.45
2022-07-27T17:31:13.215Z,1.40
2022-07-27T17:33:42.534Z,1.67
2022-07-27T17:36:15.056Z,1.50
2022-07-27T17:38:45.239Z,1.52
2022-07-27T17:41:23.352Z,1.42
2022-07-27T17:43:51.997Z,1.67
2022-07-27T17:46:19.907Z,1.40
2022-07-27T17:48:47.715Z,1.37
2022-07-27T17:51:15.488Z,1.70
2022-07-27T17:53:43.195Z,1.45
2022-07-27T17:56:12.136Z,1.23
2022-07-27T17:58:40.533Z,1.45
2022-07-27T18:01:09.446Z,1.45
2022-07-27T18:03:37.264Z,1.42
2022-07-27T18:06:05.134Z,1.60
2022-07-27T18:08:32.899Z,1.40
2022-07-27T18:11:00.726Z,1.58
2022-07-27T18:13:37.778Z,1.80
2022-07-27T18:16:09.195Z,1.60
2022-07-27T18:18:38.220Z,1.70
2022-07-27T18:21:06.451Z,1.60
2022-07-27T18:23:34.140Z,1.45
2022-07-27T18:26:01.950Z,1.30
2022-07-27T18:28:29.777Z,1.52
2022-07-27T18:30:57.783Z,1.77
2022-07-27T18:33:27.272Z,1.48
2022-07-27T18:36:04.750Z,1.50
2022-07-27T18:38:32.475Z,1.45
2022-07-27T18:41:01.062Z,1.67
2022-07-27T18:43:28.731Z,1.48
2022-07-27T18:45:56.683Z,1.70
2022-07-27T18:48:24.440Z,2.10
2022-07-27T18:50:54.592Z,1.70
2022-07-27T18:53:22.456Z,1.40
2022-07-27T18:55:55.641Z,1.60
2022-07-27T18:58:24.100Z,1.70
2022-07-27T19:00:52.610Z,1.50
2022-07-27T19:03:22.888Z,1.95
2022-07-27T19:05:52.948Z,2.17
2022-07-27T19:08:21.253Z,1.70
2022-07-27T19:10:49.235Z,1.58
2022-07-27T19:13:17.170Z,1.80
2022-07-27T19:15:46.004Z,1.75
2022-07-27T19:18:13.819Z,1.50
2022-07-27T19:20:42.600Z,2.10
2022-07-27T19:23:10.322Z,1.90
2022-07-27T19:25:38.073Z,1.87
2022-07-27T19:28:06.039Z,2.37
2022-07-27T19:30:33.963Z,2.22
2022-07-27T19:33:01.845Z,2.15
2022-07-27T19:35:29.748Z,1.90
2022-07-27T19:37:57.504Z,1.83
2022-07-27T19:43:13.714Z,1.92
2022-07-27T19:45:41.644Z,1.70
2022-07-27T19:48:09.729Z,2.60
2022-07-27T19:50:37.638Z,1.98
2022-07-27T19:53:05.516Z,1.98
2022-07-27T19:55:33.200Z,2.10
2022-07-27T19:58:01.560Z,2.60
2022-07-27T20:00:29.435Z,2.85
2022-07-27T20:02:57.125Z,2.70
2022-07-27T20:05:24.942Z,2.28
2022-07-27T20:07:52.635Z,2.17
2022-07-27T20:10:22.640Z,2.33
2022-07-27T20:12:50.386Z,2.65
2022-07-27T20:15:18.182Z,2.67
2022-07-27T20:17:45.963Z,2.28
2022-07-27T20:20:13.876Z,2.42
2022-07-27T20:22:42.084Z,2.47
2022-07-27T20:25:15.844Z,2.65
2022-07-27T20:27:43.962Z,2.15
2022-07-27T20:30:13.163Z,2.60
2022-07-27T20:32:41.091Z,2.28
2022-07-27T20:35:09.507Z,2.40
2022-07-27T20:37:37.707Z,2.30
2022-07-27T20:40:08.572Z,2.42
2022-07-27T20:42:36.268Z,2.30
2022-07-27T20:45:11.163Z,2.53
2022-07-27T20:47:41.710Z,2.25
2022-07-27T20:50:11.972Z,2.30
2022-07-27T20:52:40.889Z,2.55
2022-07-27T20:55:09.956Z,2.25
2022-07-27T20:57:37.702Z,2.40
2022-07-27T21:00:08.616Z,1.98
2022-07-27T21:02:36.628Z,2.45
2022-07-27T21:05:05.033Z,2.12
2022-07-27T21:07:32.733Z,2.15
2022-07-27T21:10:00.473Z,2.47
2022-07-27T21:12:28.174Z,2.55
2022-07-27T21:14:55.892Z,1.98
2022-07-27T21:17:24.543Z,2.35
2022-07-27T21:19:52.669Z,2.17
2022-07-27T21:22:20.503Z,2.58
2022-07-27T21:24:48.260Z,2.03
2022-07-27T21:27:19.746Z,2.17
2022-07-27T21:29:49.587Z,2.55
2022-07-27T21:32:18.245Z,2.03
2022-07-27T21:34:45.977Z,2.15
2022-07-27T21:37:13.762Z,1.80
2022-07-27T21:39:41.498Z,2.12
2022-07-27T21:42:09.271Z,2.10
2022-07-27T21:44:38.490Z,1.77
2022-07-27T21:47:13.499Z,2.05
2022-07-27T21:49:42.078Z,2.20
2022-07-27T21:52:09.827Z,2.40
2022-07-27T21:54:37.513Z,2.28
2022-07-27T21:57:05.299Z,2.05
2022-07-27T21:59:32.989Z,2.12
2022-07-27T22:02:01.991Z,2.08
2022-07-27T22:04:29.799Z,1.90
2022-07-27T22:06:57.967Z,2.15
2022-07-27T22:09:25.754Z,2.47
2022-07-27T22:11:53.448Z,2.28
2022-07-27T22:14:24.286Z,2.20
2022-07-27T22:16:54.033Z,2.10
2022-07-27T22:19:21.839Z,2.08
2022-07-27T22:21:49.594Z,2.42
2022-07-27T22:24:17.649Z,1.98
2022-07-27T22:26:45.493Z,1.87
2022-07-27T22:29:13.356Z,2.45
2022-07-27T22:31:41.064Z,2.40
2022-07-27T22:34:08.955Z,2.35
2022-07-27T22:36:36.671Z,2.00
2022-07-27T22:39:04.369Z,2.17
2022-07-27T22:41:32.041Z,1.87
2022-07-27T22:44:00.333Z,2.30
2022-07-27T22:46:31.052Z,2.20
2022-07-27T22:48:58.955Z,2.08
2022-07-27T22:51:26.758Z,2.10
2022-07-27T22:54:14.678Z,1.90
2022-07-27T22:56:42.706Z,1.80
2022-07-27T22:59:10.378Z,1.60
2022-07-27T23:01:45.899Z,2.05
2022-07-27T23:04:16.294Z,1.70
2022-07-27T23:06:44.599Z,1.83
2022-07-27T23:09:12.400Z,1.98
2022-07-27T23:11:40.055Z,1.85
2022-07-27T23:14:08.523Z,2.17
2022-07-27T23:16:36.575Z,2.35
2022-07-27T23:19:04.801Z,1.87
2022-07-27T23:21:32.507Z,2.00
2022-07-27T23:24:00.210Z,2.00
2022-07-27T23:26:28.557Z,1.92
2022-07-27T23:28:56.399Z,1.70
2022-07-27T23:31:24.435Z,1.70
2022-07-27T23:33:52.532Z,1.83
2022-07-27T23:36:20.200Z,2.08
2022-07-27T23:38:47.887Z,2.03
2022-07-27T23:41:17.150Z,1.95
2022-07-27T23:43:45.004Z,1.62
2022-07-27T23:46:12.803Z,1.83
2022-07-27T23:48:40.542Z,1.87
2022-07-27T23:51:09.989Z,1.70
2022-07-27T23:53:37.871Z,1.77
2022-07-27T23:56:05.764Z,1.95
2022-07-27T23:58:33.432Z,2.05
